sensor_id;sensor_type;location;lat;lon;timestamp;pressure;altitude;pressure_sealevel;temperature;humidity
9740;BME280;4909;42.680;26.324;2023-03-11T00:00:41;96927.59;;;14.85;92.23
9740;BME280;4909;42.680;26.324;2023-03-11T00:03:11;96938.56;;;14.91;91.49
9740;BME280;4909;42.680;26.324;2023-03-11T00:05:40;96938.06;;;15.07;90.71
9740;BME280;4909;42.680;26.324;2023-03-11T00:08:10;96925.41;;;15.09;90.11
9740;BME280;4909;42.680;26.324;2023-03-11T00:10:39;96940.91;;;15.15;89.96
9740;BME280;4909;42.680;26.324;2023-03-11T00:13:09;96832.22;;;14.47;89.92
9740;BME280;4909;42.680;26.324;2023-03-11T00:15:38;96918.19;;;14.90;91.37
9740;BME280;4909;42.680;26.324;2023-03-11T00:18:05;96919.16;;;14.79;94.47
9740;BME280;4909;42.680;26.324;2023-03-11T00:20:34;96920.75;;;14.52;98.12
9740;BME280;4909;42.680;26.324;2023-03-11T00:23:01;96912.34;;;14.66;98.10
9740;BME280;4909;42.680;26.324;2023-03-11T00:25:30;96903.59;;;14.33;100.00
9740;BME280;4909;42.680;26.324;2023-03-11T00:27:58;96895.78;;;14.11;100.00
9740;BME280;4909;42.680;26.324;2023-03-11T00:30:25;96876.59;;;13.97;100.00
9740;BME280;4909;42.680;26.324;2023-03-11T00:32:55;96890.97;;;14.05;100.00
9740;BME280;4909;42.680;26.324;2023-03-11T00:35:23;96889.00;;;14.28;100.00
9740;BME280;4909;42.680;26.324;2023-03-11T00:37:52;96878.59;;;14.55;100.00
9740;BME280;4909;42.680;26.324;2023-03-11T00:40:20;96862.28;;;14.58;100.00
9740;BME280;4909;42.680;26.324;2023-03-11T00:42:47;96864.72;;;14.61;100.00
9740;BME280;4909;42.680;26.324;2023-03-11T00:45:14;96874.31;;;14.93;100.00
9740;BME280;4909;42.680;26.324;2023-03-11T00:47:42;96870.13;;;14.90;100.00
9740;BME280;4909;42.680;26.324;2023-03-11T00:50:13;96840.44;;;14.84;100.00
9740;BME280;4909;42.680;26.324;2023-03-11T00:52:42;96869.16;;;15.10;100.00
9740;BME280;4909;42.680;26.324;2023-03-11T00:55:09;96858.06;;;15.25;100.00
9740;BME280;4909;42.680;26.324;2023-03-11T00:57:38;96860.16;;;15.31;100.00
9740;BME280;4909;42.680;26.324;2023-03-11T01:00:06;96852.84;;;15.33;100.00
9740;BME280;4909;42.680;26.324;2023-03-11T01:02:36;96840.59;;;15.20;100.00
9740;BME280;4909;42.680;26.324;2023-03-11T01:05:03;96834.66;;;14.78;100.00
9740;BME280;4909;42.680;26.324;2023-03-11T01:07:32;96847.34;;;14.86;100.00
9740;BME280;4909;42.680;26.324;2023-03-11T01:09:59;96843.88;;;14.55;100.00
9740;BME280;4909;42.680;26.324;2023-03-11T01:12:26;96837.31;;;14.69;100.00
9740;BME280;4909;42.680;26.324;2023-03-11T01:14:53;96827.06;;;14.74;100.00
9740;BME280;4909;42.680;26.324;2023-03-11T01:17:20;96828.78;;;14.85;100.00
9740;BME280;4909;42.680;26.324;2023-03-11T01:19:47;96829.75;;;14.93;100.00
9740;BME280;4909;42.680;26.324;2023-03-11T01:22:14;96829.91;;;15.01;100.00
9740;BME280;4909;42.680;26.324;2023-03-11T01:24:42;96828.38;;;15.18;100.00
9740;BME280;4909;42.680;26.324;2023-03-11T01:27:09;96821.78;;;15.22;100.00
9740;BME280;4909;42.680;26.324;2023-03-11T01:29:36;96814.88;;;15.29;100.00
9740;BME280;4909;42.680;26.324;2023-03-11T01:32:03;96825.00;;;15.26;100.00
9740;BME280;4909;42.680;26.324;2023-03-11T01:34:31;96805.31;;;14.98;100.00
9740;BME280;4909;42.680;26.324;2023-03-11T01:37:00;96797.56;;;14.75;100.00
9740;BME280;4909;42.680;26.324;2023-03-11T01:39:27;96806.41;;;14.66;100.00
9740;BME280;4909;42.680;26.324;2023-03-11T01:41:55;96795.03;;;14.74;100.00
9740;BME280;4909;42.680;26.324;2023-03-11T01:44:22;96800.81;;;14.98;100.00
9740;BME280;4909;42.680;26.324;2023-03-11T01:49:53;96777.75;;;15.16;100.00
9740;BME280;4909;42.680;26.324;2023-03-11T01:52:20;96776.63;;;14.90;100.00
9740;BME280;4909;42.680;26.324;2023-03-11T01:54:47;96777.06;;;14.95;100.00
9740;BME280;4909;42.680;26.324;2023-03-11T01:57:15;96774.09;;;14.98;100.00
9740;BME280;4909;42.680;26.324;2023-03-11T01:59:46;96770.16;;;14.83;100.00
9740;BME280;4909;42.680;26.324;2023-03-11T02:02:17;96775.38;;;14.94;100.00
9740;BME280;4909;42.680;26.324;2023-03-11T02:04:45;96779.88;;;15.03;100.00
9740;BME280;4909;42.680;26.324;2023-03-11T02:07:13;96777.84;;;14.67;100.00
9740;BME280;4909;42.680;26.324;2023-03-11T02:09:40;96776.75;;;14.69;100.00
9740;BME280;4909;42.680;26.324;2023-03-11T02:12:10;96774.09;;;14.79;100.00
9740;BME280;4909;42.680;26.324;2023-03-11T02:14:42;96775.78;;;14.99;100.00
9740;BME280;4909;42.680;26.324;2023-03-11T02:17:10;96730.63;;;14.48;100.00
9740;BME280;4909;42.680;26.324;2023-03-11T02:19:48;96763.09;;;14.53;100.00
9740;BME280;4909;42.680;26.324;2023-03-11T02:22:19;96758.91;;;14.60;100.00
9740;BME280;4909;42.680;26.324;2023-03-11T02:24:52;96756.34;;;14.49;100.00
9740;BME280;4909;42.680;26.324;2023-03-11T02:27:22;96749.06;;;14.61;100.00
9740;BME280;4909;42.680;26.324;2023-03-11T02:29:51;96745.97;;;14.75;100.00
9740;BME280;4909;42.680;26.324;2023-03-11T02:32:19;96760.44;;;14.82;100.00
9740;BME280;4909;42.680;26.324;2023-03-11T02:34:46;96761.16;;;14.84;100.00
9740;BME280;4909;42.680;26.324;2023-03-11T02:37:15;96747.53;;;14.87;100.00
9740;BME280;4909;42.680;26.324;2023-03-11T02:39:44;96753.88;;;14.86;100.00
9740;BME280;4909;42.680;26.324;2023-03-11T02:42:12;96766.94;;;14.99;100.00
9740;BME280;4909;42.680;26.324;2023-03-11T02:44:43;96753.69;;;15.07;100.00
9740;BME280;4909;42.680;26.324;2023-03-11T02:47:11;96754.13;;;15.12;100.00
9740;BME280;4909;42.680;26.324;2023-03-11T02:49:38;96743.16;;;14.76;100.00
9740;BME280;4909;42.680;26.324;2023-03-11T02:52:05;96738.94;;;14.93;100.00
9740;BME280;4909;42.680;26.324;2023-03-11T02:54:32;96734.88;;;14.70;100.00
9740;BME280;4909;42.680;26.324;2023-03-11T02:56:59;96738.09;;;14.64;100.00
9740;BME280;4909;42.680;26.324;2023-03-11T02:59:26;96731.16;;;14.32;100.00
9740;BME280;4909;42.680;26.324;2023-03-11T03:01:54;96747.22;;;14.52;100.00
9740;BME280;4909;42.680;26.324;2023-03-11T03:04:21;96749.06;;;14.51;100.00
9740;BME280;4909;42.680;26.324;2023-03-11T03:06:48;96742.47;;;14.74;100.00
9740;BME280;4909;42.680;26.324;2023-03-11T03:09:15;96734.59;;;14.63;100.00
9740;BME280;4909;42.680;26.324;2023-03-11T03:11:41;96726.28;;;14.47;100.00
9740;BME280;4909;42.680;26.324;2023-03-11T03:14:08;96724.31;;;14.59;100.00
9740;BME280;4909;42.680;26.324;2023-03-11T03:16:35;96730.50;;;14.69;100.00
9740;BME280;4909;42.680;26.324;2023-03-11T03:19:03;96721.41;;;14.81;100.00
9740;BME280;4909;42.680;26.324;2023-03-11T03:21:30;96727.00;;;14.88;100.00
9740;BME280;4909;42.680;26.324;2023-03-11T03:23:56;96715.75;;;14.94;100.00
9740;BME280;4909;42.680;26.324;2023-03-11T03:26:23;96699.31;;;14.98;100.00
9740;BME280;4909;42.680;26.324;2023-03-11T03:28:50;96693.41;;;15.04;100.00
9740;BME280;4909;42.680;26.324;2023-03-11T03:31:17;96709.84;;;15.19;100.00
9740;BME280;4909;42.680;26.324;2023-03-11T03:33:44;96703.09;;;15.05;100.00
9740;BME280;4909;42.680;26.324;2023-03-11T03:36:13;96692.13;;;14.99;100.00
9740;BME280;4909;42.680;26.324;2023-03-11T03:38:40;96677.63;;;15.01;100.00
9740;BME280;4909;42.680;26.324;2023-03-11T03:43:52;96698.84;;;15.22;100.00
9740;BME280;4909;42.680;26.324;2023-03-11T03:46:20;96674.81;;;15.12;100.00
9740;BME280;4909;42.680;26.324;2023-03-11T03:48:47;96684.81;;;15.01;100.00
9740;BME280;4909;42.680;26.324;2023-03-11T03:51:16;96693.50;;;15.12;100.00
9740;BME280;4909;42.680;26.324;2023-03-11T03:53:43;96677.53;;;14.84;100.00
9740;BME280;4909;42.680;26.324;2023-03-11T03:56:13;96655.63;;;14.80;100.00
9740;BME280;4909;42.680;26.324;2023-03-11T03:58:40;96678.19;;;15.14;100.00
9740;BME280;4909;42.680;26.324;2023-03-11T04:01:08;96671.84;;;15.15;100.00
9740;BME280;4909;42.680;26.324;2023-03-11T04:03:35;96657.53;;;15.07;100.00
9740;BME280;4909;42.680;26.324;2023-03-11T04:06:08;96669.56;;;15.30;100.00
9740;BME280;4909;42.680;26.324;2023-03-11T04:08:37;96665.28;;;15.47;100.00
9740;BME280;4909;42.680;26.324;2023-03-11T04:11:04;96667.22;;;15.64;100.00
9740;BME280;4909;42.680;26.324;2023-03-11T04:13:31;96653.81;;;15.74;100.00
9740;BME280;4909;42.680;26.324;2023-03-11T04:15:58;96660.84;;;15.75;100.00
9740;BME280;4909;42.680;26.324;2023-03-11T04:18:25;96663.72;;;15.91;100.00
9740;BME280;4909;42.680;26.324;2023-03-11T04:20:52;96658.25;;;15.92;100.00
9740;BME280;4909;42.680;26.324;2023-03-11T04:23:18;96655.41;;;15.94;100.00
9740;BME280;4909;42.680;26.324;2023-03-11T04:25:46;96655.50;;;16.02;100.00
9740;BME280;4909;42.680;26.324;2023-03-11T04:28:13;96649.84;;;16.05;100.00
9740;BME280;4909;42.680;26.324;2023-03-11T04:30:40;96614.84;;;15.71;100.00
9740;BME280;4909;42.680;26.324;2023-03-11T04:33:07;96645.53;;;15.94;100.00
9740;BME280;4909;42.680;26.324;2023-03-11T04:35:33;96644.69;;;15.94;100.00
9740;BME280;4909;42.680;26.324;2023-03-11T04:38:03;96644.41;;;15.70;100.00
9740;BME280;4909;42.680;26.324;2023-03-11T04:40:30;96634.13;;;15.28;100.00
9740;BME280;4909;42.680;26.324;2023-03-11T04:42:58;96612.47;;;14.85;100.00
9740;BME280;4909;42.680;26.324;2023-03-11T04:45:25;96642.84;;;15.20;100.00
9740;BME280;4909;42.680;26.324;2023-03-11T04:47:52;96632.41;;;15.37;100.00
9740;BME280;4909;42.680;26.324;2023-03-11T04:50:18;96634.00;;;15.30;100.00
9740;BME280;4909;42.680;26.324;2023-03-11T04:52:45;96590.16;;;15.13;100.00
9740;BME280;4909;42.680;26.324;2023-03-11T04:55:13;96624.34;;;15.46;100.00
9740;BME280;4909;42.680;26.324;2023-03-11T04:57:40;96621.34;;;15.22;100.00
9740;BME280;4909;42.680;26.324;2023-03-11T05:00:10;96622.25;;;15.03;100.00
9740;BME280;4909;42.680;26.324;2023-03-11T05:02:39;96625.09;;;14.83;100.00
9740;BME280;4909;42.680;26.324;2023-03-11T05:05:08;96606.84;;;14.68;100.00
9740;BME280;4909;42.680;26.324;2023-03-11T05:07:36;96625.91;;;15.02;100.00
9740;BME280;4909;42.680;26.324;2023-03-11T05:10:03;96633.00;;;15.21;100.00
9740;BME280;4909;42.680;26.324;2023-03-11T05:12:30;96640.44;;;15.37;100.00
9740;BME280;4909;42.680;26.324;2023-03-11T05:14:57;96635.19;;;15.54;100.00
9740;BME280;4909;42.680;26.324;2023-03-11T05:17:26;96635.03;;;15.56;100.00
9740;BME280;4909;42.680;26.324;2023-03-11T05:19:52;96630.09;;;15.61;100.00
9740;BME280;4909;42.680;26.324;2023-03-11T05:22:20;96623.84;;;15.70;100.00
9740;BME280;4909;42.680;26.324;2023-03-11T05:24:47;96626.88;;;15.85;100.00
9740;BME280;4909;42.680;26.324;2023-03-11T05:27:14;96635.59;;;15.87;100.00
9740;BME280;4909;42.680;26.324;2023-03-11T05:29:42;96638.34;;;15.95;100.00
9740;BME280;4909;42.680;26.324;2023-03-11T05:32:09;96632.47;;;15.91;100.00
9740;BME280;4909;42.680;26.324;2023-03-11T05:34:37;96641.56;;;15.98;100.00
9740;BME280;4909;42.680;26.324;2023-03-11T05:37:04;96642.28;;;16.00;100.00
9740;BME280;4909;42.680;26.324;2023-03-11T05:39:32;96648.34;;;15.93;100.00
9740;BME280;4909;42.680;26.324;2023-03-11T05:41:59;96649.19;;;15.93;100.00
9740;BME280;4909;42.680;26.324;2023-03-11T05:44:26;96650.22;;;15.92;100.00
9740;BME280;4909;42.680;26.324;2023-03-11T05:46:53;96647.09;;;15.97;100.00
9740;BME280;4909;42.680;26.324;2023-03-11T05:49:20;96643.13;;;16.01;100.00
9740;BME280;4909;42.680;26.324;2023-03-11T05:51:48;96648.34;;;15.93;100.00
9740;BME280;4909;42.680;26.324;2023-03-11T05:54:16;96638.41;;;15.85;100.00
9740;BME280;4909;42.680;26.324;2023-03-11T05:56:44;96655.50;;;15.75;100.00
9740;BME280;4909;42.680;26.324;2023-03-11T05:59:11;96644.34;;;15.52;100.00
9740;BME280;4909;42.680;26.324;2023-03-11T06:01:39;96649.75;;;15.70;100.00
9740;BME280;4909;42.680;26.324;2023-03-11T06:04:06;96649.81;;;15.87;100.00
9740;BME280;4909;42.680;26.324;2023-03-11T06:06:32;96645.34;;;15.78;100.00
9740;BME280;4909;42.680;26.324;2023-03-11T06:09:01;96651.19;;;15.91;100.00
9740;BME280;4909;42.680;26.324;2023-03-11T06:11:28;96651.13;;;15.74;100.00
9740;BME280;4909;42.680;26.324;2023-03-11T06:13:56;96654.75;;;15.45;100.00
9740;BME280;4909;42.680;26.324;2023-03-11T06:16:24;96640.69;;;15.53;100.00
9740;BME280;4909;42.680;26.324;2023-03-11T06:18:51;96620.69;;;15.57;100.00
9740;BME280;4909;42.680;26.324;2023-03-11T06:21:19;96640.28;;;15.75;100.00
9740;BME280;4909;42.680;26.324;2023-03-11T06:23:46;96631.03;;;15.97;100.00
9740;BME280;4909;42.680;26.324;2023-03-11T06:26:16;96636.38;;;15.97;100.00
9740;BME280;4909;42.680;26.324;2023-03-11T06:28:45;96643.19;;;16.09;100.00
9740;BME280;4909;42.680;26.324;2023-03-11T06:31:14;96624.53;;;15.99;100.00
9740;BME280;4909;42.680;26.324;2023-03-11T06:33:42;96620.94;;;15.91;100.00
9740;BME280;4909;42.680;26.324;2023-03-11T06:36:14;96638.34;;;15.95;100.00
9740;BME280;4909;42.680;26.324;2023-03-11T06:38:42;96629.78;;;15.64;100.00
9740;BME280;4909;42.680;26.324;2023-03-11T06:41:10;96627.16;;;15.54;100.00
9740;BME280;4909;42.680;26.324;2023-03-11T06:43:39;96601.34;;;15.26;100.00
9740;BME280;4909;42.680;26.324;2023-03-11T06:46:17;96617.22;;;15.37;100.00
9740;BME280;4909;42.680;26.324;2023-03-11T06:48:44;96619.13;;;15.54;100.00
9740;BME280;4909;42.680;26.324;2023-03-11T06:51:11;96617.38;;;15.73;100.00
9740;BME280;4909;42.680;26.324;2023-03-11T06:53:39;96619.44;;;15.79;100.00
9740;BME280;4909;42.680;26.324;2023-03-11T06:56:08;96618.19;;;16.00;100.00
9740;BME280;4909;42.680;26.324;2023-03-11T06:58:36;96617.34;;;16.18;99.84
9740;BME280;4909;42.680;26.324;2023-03-11T07:01:08;96613.69;;;16.19;99.09
9740;BME280;4909;42.680;26.324;2023-03-11T07:03:35;96605.59;;;16.11;98.13
9740;BME280;4909;42.680;26.324;2023-03-11T07:06:03;96573.22;;;15.86;98.42
9740;BME280;4909;42.680;26.324;2023-03-11T07:08:30;96591.38;;;16.10;98.46
9740;BME280;4909;42.680;26.324;2023-03-11T07:11:02;96573.38;;;16.73;95.59
9740;BME280;4909;42.680;26.324;2023-03-11T07:13:30;96548.63;;;17.39;91.68
9740;BME280;4909;42.680;26.324;2023-03-11T07:16:01;96578.50;;;18.60;86.48
9740;BME280;4909;42.680;26.324;2023-03-11T07:18:29;96571.94;;;18.79;84.62
9740;BME280;4909;42.680;26.324;2023-03-11T07:20:56;96577.81;;;19.70;80.32
9740;BME280;4909;42.680;26.324;2023-03-11T07:23:23;96565.34;;;20.08;77.79
9740;BME280;4909;42.680;26.324;2023-03-11T07:25:50;96558.25;;;20.98;74.59
9740;BME280;4909;42.680;26.324;2023-03-11T07:28:17;96557.75;;;21.76;70.45
9740;BME280;4909;42.680;26.324;2023-03-11T07:30:44;96546.88;;;22.77;67.60
9740;BME280;4909;42.680;26.324;2023-03-11T07:33:13;96539.97;;;24.86;59.36
9740;BME280;4909;42.680;26.324;2023-03-11T07:35:41;96522.22;;;24.71;58.31
9740;BME280;4909;42.680;26.324;2023-03-11T07:38:08;96531.84;;;25.19;54.04
9740;BME280;4909;42.680;26.324;2023-03-11T07:40:35;96531.06;;;27.03;49.40
9740;BME280;4909;42.680;26.324;2023-03-11T07:43:02;96520.84;;;26.99;47.85
9740;BME280;4909;42.680;26.324;2023-03-11T07:45:29;96506.31;;;26.11;49.00
9740;BME280;4909;42.680;26.324;2023-03-11T07:47:56;96501.53;;;25.29;51.48
9740;BME280;4909;42.680;26.324;2023-03-11T07:50:22;96507.59;;;24.52;53.75
9740;BME280;4909;42.680;26.324;2023-03-11T07:52:51;96504.06;;;23.09;56.76
9740;BME280;4909;42.680;26.324;2023-03-11T07:55:17;96499.19;;;21.77;60.75
9740;BME280;4909;42.680;26.324;2023-03-11T07:57:46;96499.50;;;21.08;62.89
9740;BME280;4909;42.680;26.324;2023-03-11T08:00:14;96494.56;;;20.22;64.44
9740;BME280;4909;42.680;26.324;2023-03-11T08:02:41;96505.56;;;19.51;63.86
9740;BME280;4909;42.680;26.324;2023-03-11T08:05:09;96512.16;;;19.32;62.15
9740;BME280;4909;42.680;26.324;2023-03-11T08:07:36;96519.00;;;18.96;62.69
9740;BME280;4909;42.680;26.324;2023-03-11T08:10:05;96522.41;;;18.65;63.41
9740;BME280;4909;42.680;26.324;2023-03-11T08:12:32;96495.88;;;18.30;62.47
9740;BME280;4909;42.680;26.324;2023-03-11T08:14:59;96521.88;;;18.13;62.05
9740;BME280;4909;42.680;26.324;2023-03-11T08:17:26;96522.38;;;18.09;62.40
9740;BME280;4909;42.680;26.324;2023-03-11T08:19:52;96522.00;;;17.88;62.99
9740;BME280;4909;42.680;26.324;2023-03-11T08:22:19;96524.69;;;17.88;62.60
9740;BME280;4909;42.680;26.324;2023-03-11T08:24:50;96483.00;;;17.51;62.79
9740;BME280;4909;42.680;26.324;2023-03-11T08:27:18;96513.41;;;17.68;61.74
9740;BME280;4909;42.680;26.324;2023-03-11T08:29:45;96530.41;;;17.43;63.34
9740;BME280;4909;42.680;26.324;2023-03-11T08:32:12;96520.00;;;17.48;62.14
9740;BME280;4909;42.680;26.324;2023-03-11T08:34:39;96531.53;;;17.66;61.64
9740;BME280;4909;42.680;26.324;2023-03-11T08:37:06;96543.59;;;17.62;61.87
9740;BME280;4909;42.680;26.324;2023-03-11T08:39:33;96531.66;;;17.64;62.33
9740;BME280;4909;42.680;26.324;2023-03-11T08:42:00;96538.75;;;17.73;62.51
9740;BME280;4909;42.680;26.324;2023-03-11T08:44:29;96534.59;;;17.53;62.61
9740;BME280;4909;42.680;26.324;2023-03-11T08:46:56;96531.56;;;17.48;62.34
9740;BME280;4909;42.680;26.324;2023-03-11T08:49:23;96538.38;;;17.60;62.60
9740;BME280;4909;42.680;26.324;2023-03-11T08:51:50;96538.91;;;17.38;62.33
9740;BME280;4909;42.680;26.324;2023-03-11T08:54:17;96532.84;;;17.62;62.69
9740;BME280;4909;42.680;26.324;2023-03-11T08:56:44;96543.63;;;17.78;61.45
9740;BME280;4909;42.680;26.324;2023-03-11T08:59:12;96534.31;;;17.56;60.68
9740;BME280;4909;42.680;26.324;2023-03-11T09:01:40;96535.19;;;17.31;61.46
9740;BME280;4909;42.680;26.324;2023-03-11T09:04:07;96536.44;;;17.45;61.33
9740;BME280;4909;42.680;26.324;2023-03-11T09:06:34;96532.75;;;17.46;61.10
9740;BME280;4909;42.680;26.324;2023-03-11T09:09:01;96522.63;;;17.65;60.57
9740;BME280;4909;42.680;26.324;2023-03-11T09:11:28;96525.66;;;17.70;60.24
9740;BME280;4909;42.680;26.324;2023-03-11T09:13:55;96518.66;;;17.86;59.52
9740;BME280;4909;42.680;26.324;2023-03-11T09:16:23;96514.66;;;18.30;58.45
9740;BME280;4909;42.680;26.324;2023-03-11T09:18:51;96515.34;;;18.64;57.29
9740;BME280;4909;42.680;26.324;2023-03-11T09:21:18;96505.47;;;18.24;56.50
9740;BME280;4909;42.680;26.324;2023-03-11T09:23:45;96506.25;;;17.85;58.50
9740;BME280;4909;42.680;26.324;2023-03-11T09:26:13;96500.88;;;17.85;58.76
9740;BME280;4909;42.680;26.324;2023-03-11T09:28:40;96490.31;;;17.91;58.34
9740;BME280;4909;42.680;26.324;2023-03-11T09:31:07;96495.53;;;18.09;57.33
9740;BME280;4909;42.680;26.324;2023-03-11T09:33:36;96488.81;;;18.13;57.42
9740;BME280;4909;42.680;26.324;2023-03-11T09:36:06;96472.53;;;17.98;56.77
9740;BME280;4909;42.680;26.324;2023-03-11T09:38:33;96492.19;;;17.91;57.95
9740;BME280;4909;42.680;26.324;2023-03-11T09:41:03;96487.13;;;17.79;58.18
9740;BME280;4909;42.680;26.324;2023-03-11T09:43:43;96482.25;;;17.75;58.33
9740;BME280;4909;42.680;26.324;2023-03-11T09:46:27;96477.38;;;17.70;58.24
9740;BME280;4909;42.680;26.324;2023-03-11T09:49:00;96456.22;;;17.67;58.41
9740;BME280;4909;42.680;26.324;2023-03-11T09:51:35;96468.00;;;18.07;56.87
9740;BME280;4909;42.680;26.324;2023-03-11T09:54:09;96427.75;;;17.66;55.55
9740;BME280;4909;42.680;26.324;2023-03-11T09:56:37;96462.31;;;17.94;55.24
9740;BME280;4909;42.680;26.324;2023-03-11T09:59:07;96449.56;;;18.28;55.71
9740;BME280;4909;42.680;26.324;2023-03-11T10:01:37;96464.44;;;18.87;54.28
9740;BME280;4909;42.680;26.324;2023-03-11T10:04:10;96452.63;;;19.43;51.08
9740;BME280;4909;42.680;26.324;2023-03-11T10:06:41;96447.59;;;19.48;51.74
9740;BME280;4909;42.680;26.324;2023-03-11T10:09:26;96433.44;;;19.77;50.85
9740;BME280;4909;42.680;26.324;2023-03-11T10:12:04;96448.03;;;19.83;51.24
9740;BME280;4909;42.680;26.324;2023-03-11T10:15:02;96442.66;;;20.06;50.65
9740;BME280;4909;42.680;26.324;2023-03-11T10:17:42;96456.50;;;19.80;52.05
9740;BME280;4909;42.680;26.324;2023-03-11T10:20:15;96450.41;;;19.55;52.99
9740;BME280;4909;42.680;26.324;2023-03-11T10:22:53;96456.69;;;19.39;53.70
9740;BME280;4909;42.680;26.324;2023-03-11T10:25:26;96455.31;;;19.04;53.21
9740;BME280;4909;42.680;26.324;2023-03-11T10:27:57;96451.16;;;18.86;53.17
9740;BME280;4909;42.680;26.324;2023-03-11T10:30:28;96451.75;;;18.57;53.68
9740;BME280;4909;42.680;26.324;2023-03-11T10:32:59;96448.38;;;18.47;53.81
9740;BME280;4909;42.680;26.324;2023-03-11T10:35:33;96450.22;;;18.46;53.84
9740;BME280;4909;42.680;26.324;2023-03-11T10:38:09;96441.16;;;18.47;53.37
9740;BME280;4909;42.680;26.324;2023-03-11T10:40:39;96437.78;;;18.78;52.42
9740;BME280;4909;42.680;26.324;2023-03-11T10:43:10;96421.75;;;18.92;51.77
9740;BME280;4909;42.680;26.324;2023-03-11T10:45:41;96436.91;;;19.24;51.89
9740;BME280;4909;42.680;26.324;2023-03-11T10:48:10;96447.34;;;19.19;51.53
9740;BME280;4909;42.680;26.324;2023-03-11T10:50:45;96446.41;;;19.04;52.23
9740;BME280;4909;42.680;26.324;2023-03-11T10:53:15;96446.88;;;18.69;52.50
9740;BME280;4909;42.680;26.324;2023-03-11T10:55:48;96452.34;;;18.83;52.27
9740;BME280;4909;42.680;26.324;2023-03-11T10:58:17;96448.44;;;19.02;52.92
9740;BME280;4909;42.680;26.324;2023-03-11T11:00:45;96453.81;;;18.94;51.02
9740;BME280;4909;42.680;26.324;2023-03-11T11:03:18;96448.19;;;18.73;51.96
9740;BME280;4909;42.680;26.324;2023-03-11T11:05:57;96445.13;;;18.84;51.80
9740;BME280;4909;42.680;26.324;2023-03-11T11:08:25;96455.16;;;18.98;51.36
9740;BME280;4909;42.680;26.324;2023-03-11T11:10:54;96451.75;;;19.12;52.07
9740;BME280;4909;42.680;26.324;2023-03-11T11:13:23;96455.31;;;19.04;51.66
9740;BME280;4909;42.680;26.324;2023-03-11T11:15:55;96437.00;;;19.00;51.95
9740;BME280;4909;42.680;26.324;2023-03-11T11:18:25;96457.31;;;19.10;51.61
9740;BME280;4909;42.680;26.324;2023-03-11T11:20:59;96442.66;;;19.21;51.09
9740;BME280;4909;42.680;26.324;2023-03-11T11:23:36;96441.47;;;18.77;51.85
9740;BME280;4909;42.680;26.324;2023-03-11T11:26:06;96456.59;;;18.61;52.75
9740;BME280;4909;42.680;26.324;2023-03-11T11:28:34;96461.44;;;18.50;52.76
9740;BME280;4909;42.680;26.324;2023-03-11T11:31:03;96459.47;;;18.44;53.09
9740;BME280;4909;42.680;26.324;2023-03-11T11:33:31;96435.78;;;18.31;53.67
9740;BME280;4909;42.680;26.324;2023-03-11T11:36:01;96454.44;;;18.24;53.93
9740;BME280;4909;42.680;26.324;2023-03-11T11:38:29;96447.88;;;18.35;54.06
9740;BME280;4909;42.680;26.324;2023-03-11T11:41:01;96445.50;;;18.40;53.25
9740;BME280;4909;42.680;26.324;2023-03-11T11:43:40;96436.78;;;18.62;52.17
9740;BME280;4909;42.680;26.324;2023-03-11T11:46:17;96426.81;;;18.87;50.96
9740;BME280;4909;42.680;26.324;2023-03-11T11:48:49;96432.00;;;18.89;50.40
9740;BME280;4909;42.680;26.324;2023-03-11T11:51:20;96431.94;;;19.05;49.59
9740;BME280;4909;42.680;26.324;2023-03-11T11:53:52;96424.63;;;19.30;48.43
9740;BME280;4909;42.680;26.324;2023-03-11T11:56:24;96422.34;;;19.10;48.49
9740;BME280;4909;42.680;26.324;2023-03-11T11:58:51;96431.16;;;19.27;48.82
9740;BME280;4909;42.680;26.324;2023-03-11T12:01:25;96427.78;;;19.33;48.18
9740;BME280;4909;42.680;26.324;2023-03-11T12:07:13;96425.78;;;19.66;47.56
9740;BME280;4909;42.680;26.324;2023-03-11T12:09:49;96398.47;;;19.46;47.38
9740;BME280;4909;42.680;26.324;2023-03-11T12:12:26;96414.41;;;19.56;47.15
9740;BME280;4909;42.680;26.324;2023-03-11T12:15:01;96423.09;;;19.35;47.65
9740;BME280;4909;42.680;26.324;2023-03-11T12:17:34;96382.66;;;19.21;47.97
9740;BME280;4909;42.680;26.324;2023-03-11T12:20:07;96408.13;;;19.33;47.08
9740;BME280;4909;42.680;26.324;2023-03-11T12:23:02;96420.19;;;19.37;47.32
9740;BME280;4909;42.680;26.324;2023-03-11T12:25:38;96421.88;;;19.07;47.45
9740;BME280;4909;42.680;26.324;2023-03-11T12:28:21;96415.63;;;18.67;48.63
9740;BME280;4909;42.680;26.324;2023-03-11T12:30:51;96411.59;;;18.47;49.36
9740;BME280;4909;42.680;26.324;2023-03-11T12:33:26;96423.53;;;18.61;49.68
9740;BME280;4909;42.680;26.324;2023-03-11T12:35:56;96421.16;;;18.66;49.61
9740;BME280;4909;42.680;26.324;2023-03-11T12:38:28;96431.00;;;18.90;49.30
9740;BME280;4909;42.680;26.324;2023-03-11T12:41:05;96422.66;;;18.77;49.30
9740;BME280;4909;42.680;26.324;2023-03-11T12:49:38;96448.03;;;18.66;50.02
9740;BME280;4909;42.680;26.324;2023-03-11T12:52:17;96443.53;;;18.58;49.83
9740;BME280;4909;42.680;26.324;2023-03-11T12:54:44;96443.16;;;18.45;50.10
9740;BME280;4909;42.680;26.324;2023-03-11T12:57:30;96436.97;;;18.37;51.26
9740;BME280;4909;42.680;26.324;2023-03-11T13:00:12;96445.19;;;18.35;50.53
9740;BME280;4909;42.680;26.324;2023-03-11T13:03:01;96436.66;;;18.23;51.06
9740;BME280;4909;42.680;26.324;2023-03-11T13:05:53;96455.25;;;18.25;50.81
9740;BME280;4909;42.680;26.324;2023-03-11T13:08:22;96460.47;;;18.18;50.33
9740;BME280;4909;42.680;26.324;2023-03-11T13:10:52;96455.25;;;18.17;49.87
9740;BME280;4909;42.680;26.324;2023-03-11T13:13:37;96455.25;;;18.41;49.35
9740;BME280;4909;42.680;26.324;2023-03-11T13:16:35;96468.22;;;18.54;49.54
9740;BME280;4909;42.680;26.324;2023-03-11T13:22:43;96479.75;;;18.06;50.50
9740;BME280;4909;42.680;26.324;2023-03-11T13:25:33;96471.06;;;18.20;50.55
9740;BME280;4909;42.680;26.324;2023-03-11T13:28:23;96481.63;;;18.05;51.04
9740;BME280;4909;42.680;26.324;2023-03-11T13:30:56;96477.09;;;18.14;51.67
9740;BME280;4909;42.680;26.324;2023-03-11T13:33:35;96482.63;;;18.29;51.25
9740;BME280;4909;42.680;26.324;2023-03-11T13:36:17;96468.84;;;18.07;52.72